Airfield :
LOGIN :

Register | Disclaimer

   EN    FR    IT 

 










Legend :    VFR   Marginal VFR   IFR   Intensive IFR   Very Intensive IFR
Visi :
Ceiling :
>= 8 km
>= 3000ft
5 to 8 km
1000 to 3000 ft
1500m to 5 km
500 to 1000 ft
800 to 1500m
200 to 500 ft
< 800m
< 200 ft
Symbols :   Thunderstorms  Fog  Heavy snow  Heavy precipitations  Wind > 20 kt
SIGMETs :     Misc.  Thunderstorms  Icing  Turbulence  Mountain Waves  Volcanic Ashes






- Airport Elevation : 1273 ft
- IATA code : LJU


LJLJ - Ljubljana

CURRENT METAR :
  • 190400Z 27002KT 5000 BR FEW003 OVC018 M00/M01 Q1025 NOSIG

EXPIRED METARs :
  • 190330Z 21001KT 5000 BR FEW003 OVC018 M00/M01 Q1025 NOSIG
  • 190300Z 21001KT 5000 BR FEW003 OVC018 M00/M01 Q1025 NOSIG
  • 190230Z VRB01KT 7000 FEW003 OVC015 M00/M01 Q1025 NOSIG
  • 190200Z 35002KT 5000 BR SCT003 OVC020 M00/M01 Q1025 NOSIG
  • 190130Z VRB02KT 5000 BR SCT003 OVC020 M00/M01 Q1025 NOSIG

TAF TAF LJLJ
Valid from the 19 at 03:00 until the 20 at 03:00 UTC


190200Z 1903/2003 VRB02KT 7000 SCT003 OVC015
PROB30
TEMPO 1903/1905 3500 -SN BR
TEMPO 1903/1909 2500 PRFG BR SCT001 BKN005
BECMG 1910/1913 12004KT 9999 SCT010 SCT100
BECMG 1914/1916 31004KT CAVOK



MET'MAP, your aeronautical weather chart ! - Copyright ORBIFLY December 2007 - Disclaimer

ORBIFLY MET'MAP TEAM :

Programming & Development : Alexandra Zaïnal
Concept & original design : Baudouin d'Aumeries
Assistance for programming : Marc-Olivier Méhu
Technical & hardware support : Manuel Goepfert

Contact : metmap@orbifly.com




SOURCES & CREDITS :

   NOAA